Dugginsville, Missouri
Current Conditions -  °F | °C
As of 7:30 AM on Friday 24 Oct 2014 (Local Time) from KBPK Reporting Station
Moderate Fog Moderate Fog  
Wind Chill: 46°   Ceiling: 200
Heat Index: 46°   Visibility: 0.25mi
Dew Point: 45°   Wind: 0mph
Humidity: 96%   Direction: NA
Pressure: 30.13"   Gusts: NA
Location:  36.5847°N, 92.7117°W
Report Text: KBPK 241230Z AUTO 00000KT 1/4SM FG VV002 08/07 A3013 RMK AO2 T00780072
Loading
Personal Weather Stations






























Interactive Weather Map
Tropical Storm Tracking
New forecast layout! Learn more

10-Day Weather Forecast

Advertisements
Track Severe Weather on mobile